Time;durP1;ratioP1;P1;durP2;ratioP2;P2;SDS_P1;SDS_P2;PMS_P1;PMS_P2;Temp;Humidity;BMP_temperature;BMP_pressure;BME280_temperature;BME280_humidity;BME280_pressure;Samples;Min_cycle;Max_cycle;Signal;HPM_P1;HPM_P2
2022/01/23 00:00:18;;;;;;;;;;;6.50;99.90;;;;;;5020221;28;19917;-71
2022/01/23 00:02:45;;;;;;;;;;;6.40;99.90;;;;;;5009367;28;19925;-70
2022/01/23 00:05:11;;;;;;;;;;;6.30;99.90;;;;;;5022183;28;20319;-69
2022/01/23 00:07:38;;;;;;;;;;;6.30;99.90;;;;;;5013881;28;19921;-71
2022/01/23 00:10:04;;;;;;;;;;;6.40;99.90;;;;;;5026068;28;19917;-72
2022/01/23 00:12:34;;;;;;;;;;;6.50;99.90;;;;;;5025270;28;19932;-73
2022/01/23 00:17:44;;;;;;;;;;;6.60;99.90;;;;;;5028542;28;19924;-70
2022/01/23 00:20:13;;;;;;;;;;;6.60;99.90;;;;;;5026466;28;19925;-72
2022/01/23 00:30:33;;;;;;;;;;;6.50;99.90;;;;;;5041017;28;20329;-71
2022/01/23 00:33:00;;;;;;;;;;;6.50;99.90;;;;;;5037873;28;19921;-71
2022/01/23 00:35:26;;;;;;;;;;;6.30;99.90;;;;;;5028083;28;19916;-71
2022/01/23 00:37:52;;;;;;;;;;;6.20;99.90;;;;;;5027903;28;19963;-70
2022/01/23 00:40:18;;;;;;;;;;;6.20;99.90;;;;;;5026751;28;19917;-71
2022/01/23 00:42:43;;;;;;;;;;;6.30;99.90;;;;;;5027140;28;20409;-71
2022/01/23 00:48:07;;;;;;;;;;;6.40;99.90;;;;;;5010631;28;19951;-71
2022/01/23 00:50:35;;;;;;;;;;;6.50;99.90;;;;;;5027694;28;19917;-70
2022/01/23 00:53:00;;;;;;;;;;;6.50;99.90;;;;;;5028728;28;19909;-72
2022/01/23 00:55:26;;;;;;;;;;;6.50;99.90;;;;;;5029071;28;19968;-72
2022/01/23 00:57:51;;;;;;;;;;;6.50;99.90;;;;;;5027214;28;20218;-72
2022/01/23 01:00:17;;;;;;;;;;;6.40;99.90;;;;;;5026442;28;20017;-73
2022/01/23 01:02:43;;;;;;;;;;;6.50;99.90;;;;;;5023582;28;19941;-71
2022/01/23 01:05:09;;;;;;;;;;;6.50;99.90;;;;;;5021831;28;20408;-73
2022/01/23 01:07:34;;;;;;;;;;;6.60;99.90;;;;;;5031254;28;19916;-71
2022/01/23 01:10:06;;;;;;;;;;;6.60;99.90;;;;;;5032986;28;19910;-71
2022/01/23 01:12:44;;;;;;;;;;;6.60;99.90;;;;;;5018636;28;20378;-70
2022/01/23 01:31:25;;;;;;;;;;;6.70;99.90;;;;;;5026756;28;19924;-71
2022/01/23 01:33:57;;;;;;;;;;;6.70;99.90;;;;;;5026607;28;19919;-70
2022/01/23 01:36:33;;;;;;;;;;;6.50;99.90;;;;;;5014393;28;19920;-70
2022/01/23 01:38:58;;;;;;;;;;;6.50;99.90;;;;;;5025998;28;19917;-72
2022/01/23 01:41:24;;;;;;;;;;;6.40;99.90;;;;;;5025269;28;20265;-71
2022/01/23 01:43:51;;;;;;;;;;;6.30;99.90;;;;;;5023458;28;20117;-71
2022/01/23 01:46:16;;;;;;;;;;;6.40;99.90;;;;;;5025770;28;20398;-73
2022/01/23 01:48:42;;;;;;;;;;;6.60;99.90;;;;;;5016168;28;20291;-73
2022/01/23 01:51:13;;;;;;;;;;;6.60;99.90;;;;;;5026573;28;19940;-70
2022/01/23 01:53:38;;;;;;;;;;;6.60;99.90;;;;;;5027399;28;20026;-70
2022/01/23 01:56:06;;;;;;;;;;;6.70;99.90;;;;;;5026380;28;20443;-70
2022/01/23 02:01:12;;;;;;;;;;;6.50;99.90;;;;;;5027722;28;20387;-74
2022/01/23 02:09:11;;;;;;;;;;;6.60;99.90;;;;;;5026122;28;20091;-69
2022/01/23 02:52:17;;;;;;;;;;;6.80;99.90;;;;;;5028022;28;19959;-70
2022/01/23 02:57:22;;;;;;;;;;;6.40;99.90;;;;;;5026977;28;19936;-70
2022/01/23 02:59:49;;;;;;;;;;;6.30;99.90;;;;;;5027127;28;20383;-71
2022/01/23 03:02:37;;;;;;;;;;;6.20;99.90;;;;;;5027667;28;20255;-71
2022/01/23 03:05:05;;;;;;;;;;;6.20;99.90;;;;;;5026227;28;19913;-71
2022/01/23 03:11:05;;;;;;;;;;;6.60;99.90;;;;;;5006294;28;19920;-70
2022/01/23 03:31:26;;;;;;;;;;;6.70;99.90;;;;;;5030399;28;20021;-68
2022/01/23 03:33:53;;;;;;;;;;;6.70;99.90;;;;;;5029602;28;19913;-70
2022/01/23 03:36:20;;;;;;;;;;;6.70;99.90;;;;;;5025417;28;22822;-71
2022/01/23 03:38:45;;;;;;;;;;;6.50;99.90;;;;;;5028502;28;19944;-69
2022/01/23 03:41:11;;;;;;;;;;;6.60;99.90;;;;;;5029140;28;19913;-70
2022/01/23 03:43:39;;;;;;;;;;;6.70;99.90;;;;;;5027790;28;19909;-70
2022/01/23 03:51:13;;;;;;;;;;;6.70;99.90;;;;;;5039579;28;20386;-69
2022/01/23 03:53:39;;;;;;;;;;;6.70;99.90;;;;;;5026598;28;20363;-70
2022/01/23 03:56:05;;;;;;;;;;;6.70;99.90;;;;;;5027127;28;19936;-70
2022/01/23 03:58:30;;;;;;;;;;;6.70;99.90;;;;;;5024636;28;19909;-72
2022/01/23 04:00:56;;;;;;;;;;;6.70;99.90;;;;;;5027104;28;19920;-71
2022/01/23 04:03:21;;;;;;;;;;;6.60;99.90;;;;;;5026883;28;19913;-72
2022/01/23 04:05:47;;;;;;;;;;;6.70;99.90;;;;;;5026797;28;20100;-70
2022/01/23 04:08:15;;;;;;;;;;;6.80;99.90;;;;;;5026460;28;19910;-67
2022/01/23 04:10:41;;;;;;;;;;;6.70;99.90;;;;;;5024326;28;20003;-72
2022/01/23 04:45:19;;;;;;;;;;;6.70;99.90;;;;;;5027362;28;19920;-70
2022/01/23 05:02:37;;;;;;;;;;;7.00;99.90;;;;;;5026279;28;19949;-70
2022/01/23 05:06:42;;;;;;;;;;;6.90;99.90;;;;;;5025913;28;19909;-69
2022/01/23 05:09:08;;;;;;;;;;;6.90;99.90;;;;;;5017635;28;20021;-69
2022/01/23 05:11:34;;;;;;;;;;;6.80;99.90;;;;;;5019053;28;19913;-72
2022/01/23 05:14:01;;;;;;;;;;;6.70;99.90;;;;;;5018662;28;20333;-71
2022/01/23 05:16:27;;;;;;;;;;;6.80;99.90;;;;;;5018853;28;19917;-72
2022/01/23 05:18:53;;;;;;;;;;;6.70;99.90;;;;;;5019129;28;19983;-74
2022/01/23 05:24:04;;;;;;;;;;;6.60;99.90;;;;;;5019419;28;19928;-70
2022/01/23 05:26:31;;;;;;;;;;;6.60;99.90;;;;;;5016805;28;19909;-66
2022/01/23 05:28:56;;;;;;;;;;;6.60;99.90;;;;;;5031844;28;19913;-69
2022/01/23 05:31:22;;;;;;;;;;;6.60;99.90;;;;;;5023654;28;19924;-72
2022/01/23 05:33:47;;;;;;;;;;;6.70;99.90;;;;;;5016874;28;19909;-68
2022/01/23 05:36:13;;;;;;;;;;;6.60;99.90;;;;;;5013948;28;19909;-70
2022/01/23 05:38:38;;;;;;;;;;;6.50;99.90;;;;;;5017387;28;20381;-72
2022/01/23 05:41:04;;;;;;;;;;;6.60;99.90;;;;;;5023508;28;20362;-70
2022/01/23 05:43:29;;;;;;;;;;;6.50;99.90;;;;;;4998357;28;19918;-69
2022/01/23 05:45:55;;;;;;;;;;;6.50;99.90;;;;;;5002299;28;20009;-71
2022/01/23 05:48:21;;;;;;;;;;;6.70;99.90;;;;;;5025739;28;20531;-71
2022/01/23 05:50:47;;;;;;;;;;;6.70;99.90;;;;;;5019987;28;20575;-70
2022/01/23 05:53:12;;;;;;;;;;;6.80;99.90;;;;;;5019254;28;19917;-70
2022/01/23 05:55:38;;;;;;;;;;;6.90;99.90;;;;;;5017878;28;19913;-71
2022/01/23 05:58:04;;;;;;;;;;;7.00;99.90;;;;;;5003478;28;19917;-70
2022/01/23 06:00:29;;;;;;;;;;;7.00;99.90;;;;;;5021795;28;20110;-69
2022/01/23 06:02:55;;;;;;;;;;;7.10;99.90;;;;;;5021008;28;20220;-70
2022/01/23 06:05:20;;;;;;;;;;;7.10;99.90;;;;;;5021973;28;20126;-70
2022/01/23 06:07:47;;;;;;;;;;;7.10;99.90;;;;;;5023888;28;19952;-70
2022/01/23 06:10:21;;;;;;;;;;;7.20;99.90;;;;;;5004747;28;19989;-71
2022/01/23 06:12:46;;;;;;;;;;;7.20;99.90;;;;;;5019500;28;20187;-72
2022/01/23 06:15:12;;;;;;;;;;;7.10;99.90;;;;;;5023453;28;20413;-72
2022/01/23 06:17:37;;;;;;;;;;;7.10;99.90;;;;;;5021991;28;20134;-70
2022/01/23 06:20:03;;;;;;;;;;;7.10;99.90;;;;;;5006778;28;19957;-71
2022/01/23 06:22:29;;;;;;;;;;;7.00;99.90;;;;;;5025976;28;19913;-70
2022/01/23 06:24:55;;;;;;;;;;;7.00;99.90;;;;;;5022455;28;19936;-70
2022/01/23 06:27:20;;;;;;;;;;;6.90;99.90;;;;;;5017410;28;19909;-70
2022/01/23 06:29:46;;;;;;;;;;;6.80;99.90;;;;;;5012424;28;20375;-70
2022/01/23 06:32:12;;;;;;;;;;;6.90;99.90;;;;;;5025296;28;20004;-69
2022/01/23 06:34:38;;;;;;;;;;;6.90;99.90;;;;;;5038899;28;19948;-70
2022/01/23 06:37:04;;;;;;;;;;;6.90;99.90;;;;;;5049026;28;19916;-72
2022/01/23 06:39:29;;;;;;;;;;;6.80;99.90;;;;;;5047568;28;19916;-70
2022/01/23 06:41:55;;;;;;;;;;;6.80;99.90;;;;;;5048639;28;19908;-72
2022/01/23 06:44:22;;;;;;;;;;;7.00;99.90;;;;;;5037987;28;19913;-72
2022/01/23 06:46:47;;;;;;;;;;;7.00;99.90;;;;;;5013597;28;19909;-69
2022/01/23 06:49:13;;;;;;;;;;;7.00;99.90;;;;;;5042208;28;20030;-69
2022/01/23 06:51:38;;;;;;;;;;;7.10;99.90;;;;;;5031039;28;19917;-69
2022/01/23 06:54:04;;;;;;;;;;;6.90;99.90;;;;;;5028976;28;19919;-68
2022/01/23 06:56:30;;;;;;;;;;;6.60;99.90;;;;;;5013733;28;20004;-70
2022/01/23 06:58:56;;;;;;;;;;;6.50;99.90;;;;;;5029743;28;19909;-71
2022/01/23 07:01:21;;;;;;;;;;;6.50;99.90;;;;;;5029808;28;20148;-71
2022/01/23 07:03:47;;;;;;;;;;;6.60;99.90;;;;;;5030372;28;19909;-72
2022/01/23 07:06:13;;;;;;;;;;;6.60;99.90;;;;;;5030676;28;19917;-68
2022/01/23 07:08:38;;;;;;;;;;;6.50;99.90;;;;;;5024787;28;19917;-74
2022/01/23 07:11:04;;;;;;;;;;;6.40;99.90;;;;;;5021882;28;19910;-68
2022/01/23 07:13:29;;;;;;;;;;;6.30;99.90;;;;;;5020034;28;19909;-72
2022/01/23 07:15:55;;;;;;;;;;;6.30;99.90;;;;;;5031234;28;20236;-68
2022/01/23 07:18:21;;;;;;;;;;;6.30;99.90;;;;;;5023440;28;20363;-69
2022/01/23 07:20:47;;;;;;;;;;;6.40;99.90;;;;;;5022706;28;20003;-72
2022/01/23 07:23:12;;;;;;;;;;;6.50;99.90;;;;;;5008141;28;20407;-68
2022/01/23 07:25:39;;;;;;;;;;;6.50;99.90;;;;;;5026813;28;19963;-70
2022/01/23 07:28:09;;;;;;;;;;;6.60;99.90;;;;;;5024022;28;20413;-69
2022/01/23 07:30:40;;;;;;;;;;;6.70;99.90;;;;;;5018479;28;19917;-72
2022/01/23 07:33:05;;;;;;;;;;;6.70;99.90;;;;;;5020051;28;20267;-71
2022/01/23 07:35:31;;;;;;;;;;;6.80;99.90;;;;;;5032598;28;19909;-70
2022/01/23 07:37:56;;;;;;;;;;;6.90;99.90;;;;;;5030522;28;19988;-70
2022/01/23 07:40:22;;;;;;;;;;;6.90;99.90;;;;;;5022121;28;19913;-70
2022/01/23 07:42:48;;;;;;;;;;;6.90;99.90;;;;;;5026884;28;19909;-70
2022/01/23 07:45:13;;;;;;;;;;;6.80;99.90;;;;;;5026334;28;19920;-69
2022/01/23 07:47:39;;;;;;;;;;;6.80;99.90;;;;;;5024695;28;19913;-70
2022/01/23 07:50:07;;;;;;;;;;;6.80;99.90;;;;;;5029168;28;20008;-69
2022/01/23 07:52:35;;;;;;;;;;;6.80;99.90;;;;;;5030648;28;20382;-70
2022/01/23 07:55:05;;;;;;;;;;;6.80;99.90;;;;;;5028406;28;19943;-70
2022/01/23 07:57:31;;;;;;;;;;;6.80;99.90;;;;;;5030549;28;20381;-70
2022/01/23 07:59:57;;;;;;;;;;;6.90;99.90;;;;;;5036642;28;19917;-71
2022/01/23 08:02:23;;;;;;;;;;;6.90;99.90;;;;;;5028991;28;19941;-70
2022/01/23 08:04:48;;;;;;;;;;;6.90;99.90;;;;;;5018783;28;20405;-72
2022/01/23 08:07:47;;;;;;;;;;;6.90;99.90;;;;;;5016622;28;19991;-69
2022/01/23 08:10:08;;;;;;;;;;;6.90;99.90;;;;;;5021292;28;19967;-71
2022/01/23 08:12:34;;;;;;;;;;;7.00;99.90;;;;;;5016792;28;19910;-70
2022/01/23 08:15:00;;;;;;;;;;;7.00;99.90;;;;;;5032951;28;19983;-69
2022/01/23 08:17:26;;;;;;;;;;;7.10;99.90;;;;;;5016307;28;19913;-70
2022/01/23 08:19:52;;;;;;;;;;;7.10;99.90;;;;;;5019289;28;20485;-71
2022/01/23 08:22:19;;;;;;;;;;;7.10;99.90;;;;;;5022692;28;19920;-70
2022/01/23 08:24:44;;;;;;;;;;;7.10;99.90;;;;;;5026213;28;19908;-71
2022/01/23 08:27:10;;;;;;;;;;;7.10;99.90;;;;;;5020976;28;20273;-71
2022/01/23 08:29:35;;;;;;;;;;;7.00;99.90;;;;;;5017483;28;19921;-70
2022/01/23 08:32:01;;;;;;;;;;;7.00;99.90;;;;;;5021818;28;19917;-71
2022/01/23 08:34:26;;;;;;;;;;;7.10;99.90;;;;;;5025858;28;19909;-70
2022/01/23 08:36:55;;;;;;;;;;;7.20;99.90;;;;;;5044487;28;19909;-69
2022/01/23 08:39:22;;;;;;;;;;;7.30;99.90;;;;;;5051350;28;19947;-70
2022/01/23 08:41:51;;;;;;;;;;;7.20;99.90;;;;;;5033748;28;19913;-69
2022/01/23 08:44:20;;;;;;;;;;;7.30;99.90;;;;;;5051293;28;20152;-69
2022/01/23 08:46:45;;;;;;;;;;;7.20;99.90;;;;;;5049433;28;19956;-69
2022/01/23 08:49:11;;;;;;;;;;;7.20;99.90;;;;;;5026771;28;19931;-69
2022/01/23 08:51:37;;;;;;;;;;;7.20;99.90;;;;;;5028298;28;20205;-70
2022/01/23 08:54:03;;;;;;;;;;;7.10;99.90;;;;;;5028102;28;20047;-71
2022/01/23 08:56:29;;;;;;;;;;;7.10;99.90;;;;;;5014792;28;19932;-71
2022/01/23 08:58:55;;;;;;;;;;;7.00;99.90;;;;;;5027467;28;19910;-69
2022/01/23 09:01:20;;;;;;;;;;;7.00;99.90;;;;;;5027881;28;20159;-70
2022/01/23 09:03:46;;;;;;;;;;;7.00;99.90;;;;;;5012132;28;19920;-71
2022/01/23 09:06:11;;;;;;;;;;;7.00;99.90;;;;;;5029550;28;19957;-70
2022/01/23 09:08:38;;;;;;;;;;;7.10;99.90;;;;;;5031657;28;19909;-71
2022/01/23 09:11:13;;;;;;;;;;;7.20;99.90;;;;;;5034321;28;19916;-69
2022/01/23 09:16:09;;;;;;;;;;;7.20;99.90;;;;;;5039477;28;19967;-70
2022/01/23 09:18:35;;;;;;;;;;;7.30;99.90;;;;;;5034416;28;19971;-71
2022/01/23 09:21:01;;;;;;;;;;;7.30;99.90;;;;;;5034889;28;19917;-70
2022/01/23 09:23:26;;;;;;;;;;;7.30;99.90;;;;;;5034278;28;20354;-69
2022/01/23 09:25:52;;;;;;;;;;;7.40;99.90;;;;;;5038734;28;20007;-70
2022/01/23 09:28:19;;;;;;;;;;;7.40;99.90;;;;;;5035607;28;19920;-70
2022/01/23 09:30:49;;;;;;;;;;;7.30;99.90;;;;;;5044118;28;19917;-70
2022/01/23 09:33:15;;;;;;;;;;;7.30;99.90;;;;;;5038381;28;19909;-71
2022/01/23 09:35:40;;;;;;;;;;;7.30;99.90;;;;;;5031395;28;19948;-69
2022/01/23 09:38:06;;;;;;;;;;;7.30;99.90;;;;;;5032236;28;19956;-72
2022/01/23 09:40:31;;;;;;;;;;;7.40;99.90;;;;;;5029517;28;19921;-70
2022/01/23 09:43:07;;;;;;;;;;;7.50;99.90;;;;;;5007870;28;19913;-71
2022/01/23 09:45:33;;;;;;;;;;;7.50;99.90;;;;;;5023459;28;19909;-69
2022/01/23 09:48:00;;;;;;;;;;;7.40;99.90;;;;;;5023183;28;19948;-72
2022/01/23 09:50:26;;;;;;;;;;;7.30;99.90;;;;;;5021202;28;20104;-72
2022/01/23 09:52:56;;;;;;;;;;;7.30;99.90;;;;;;5021014;28;19956;-70
2022/01/23 09:55:22;;;;;;;;;;;7.40;99.90;;;;;;5022848;28;20237;-68
2022/01/23 09:57:48;;;;;;;;;;;7.60;99.90;;;;;;5021970;28;19916;-71
2022/01/23 10:00:15;;;;;;;;;;;7.50;99.90;;;;;;5023637;28;19924;-69
2022/01/23 10:02:41;;;;;;;;;;;7.50;99.90;;;;;;5008932;28;19913;-71
2022/01/23 10:05:07;;;;;;;;;;;7.50;99.90;;;;;;5006513;28;19925;-70
2022/01/23 10:07:37;;;;;;;;;;;7.40;99.90;;;;;;5018677;28;19910;-70
2022/01/23 10:10:16;;;;;;;;;;;7.40;99.90;;;;;;5024480;28;19960;-71
2022/01/23 10:12:43;;;;;;;;;;;7.40;99.90;;;;;;5022183;28;19921;-69
2022/01/23 10:15:09;;;;;;;;;;;7.40;99.90;;;;;;5012225;28;19983;-70
2022/01/23 10:17:35;;;;;;;;;;;7.50;99.90;;;;;;5034414;28;19960;-71
2022/01/23 10:20:01;;;;;;;;;;;7.50;99.90;;;;;;5032854;28;19917;-69
2022/01/23 10:22:26;;;;;;;;;;;7.40;99.90;;;;;;5026734;28;20149;-70
2022/01/23 10:24:52;;;;;;;;;;;7.30;99.90;;;;;;5031365;28;19968;-70
2022/01/23 10:27:17;;;;;;;;;;;7.40;99.90;;;;;;5019426;28;20402;-72
2022/01/23 10:29:46;;;;;;;;;;;7.60;99.90;;;;;;5021246;28;19917;-70
2022/01/23 10:32:24;;;;;;;;;;;7.70;99.90;;;;;;5024464;28;19963;-70
2022/01/23 10:34:49;;;;;;;;;;;7.70;99.90;;;;;;5014040;28;19913;-71
2022/01/23 10:37:27;;;;;;;;;;;7.70;99.90;;;;;;5032613;28;20577;-69
2022/01/23 10:39:53;;;;;;;;;;;7.70;99.90;;;;;;5038985;28;19909;-71
2022/01/23 10:42:36;;;;;;;;;;;7.80;99.90;;;;;;5033347;28;20043;-72
2022/01/23 10:47:49;;;;;;;;;;;7.70;99.90;;;;;;5030279;28;20460;-72
2022/01/23 10:50:14;;;;;;;;;;;7.60;99.90;;;;;;5032413;28;19921;-71
2022/01/23 10:52:42;;;;;;;;;;;7.70;99.90;;;;;;5019771;28;19913;-70
2022/01/23 10:55:11;;;;;;;;;;;7.70;99.90;;;;;;5022559;28;19917;-71
2022/01/23 10:57:41;;;;;;;;;;;7.80;99.90;;;;;;5016617;28;19928;-70
2022/01/23 11:00:08;;;;;;;;;;;7.90;99.90;;;;;;5016187;28;19926;-70
2022/01/23 11:02:37;;;;;;;;;;;8.00;99.90;;;;;;5018569;28;19914;-74
2022/01/23 11:05:05;;;;;;;;;;;8.00;99.90;;;;;;5015719;28;19948;-70
2022/01/23 11:07:31;;;;;;;;;;;8.10;99.90;;;;;;5018959;28;19913;-74
2022/01/23 11:10:03;;;;;;;;;;;8.10;99.90;;;;;;4996428;28;19909;-74
2022/01/23 11:18:08;;;;;;;;;;;7.90;99.90;;;;;;5035943;28;19962;-70
2022/01/23 11:20:37;;;;;;;;;;;7.80;99.90;;;;;;5017901;28;19952;-70
2022/01/23 11:23:02;;;;;;;;;;;7.80;99.90;;;;;;5024324;28;19917;-71
2022/01/23 11:25:28;;;;;;;;;;;7.80;99.90;;;;;;5009775;28;20044;-72
2022/01/23 11:28:00;;;;;;;;;;;7.80;99.90;;;;;;5006142;28;19975;-71
2022/01/23 11:30:33;;;;;;;;;;;7.90;99.90;;;;;;5019553;28;19973;-72
2022/01/23 11:32:59;;;;;;;;;;;7.90;99.90;;;;;;5015260;28;19924;-72
2022/01/23 11:35:27;;;;;;;;;;;8.00;99.90;;;;;;5020805;28;19913;-72
2022/01/23 11:37:53;;;;;;;;;;;8.10;99.90;;;;;;5035334;28;19996;-68
2022/01/23 11:40:37;;;;;;;;;;;8.00;99.90;;;;;;5020817;28;19928;-71
2022/01/23 11:53:54;;;;;;;;;;;7.90;99.90;;;;;;5015276;28;20138;-70
2022/01/23 11:56:35;;;;;;;;;;;8.00;99.90;;;;;;5017277;28;19984;-70
2022/01/23 11:59:01;;;;;;;;;;;8.10;99.90;;;;;;5015707;28;20312;-71
2022/01/23 12:01:26;;;;;;;;;;;8.10;99.90;;;;;;5015828;28;19918;-71
2022/01/23 12:04:16;;;;;;;;;;;8.20;99.90;;;;;;5006265;28;20413;-70
2022/01/23 12:06:42;;;;;;;;;;;8.20;99.90;;;;;;5025681;28;20283;-71
2022/01/23 12:09:16;;;;;;;;;;;8.10;99.90;;;;;;5025405;28;19913;-70
2022/01/23 12:12:01;;;;;;;;;;;8.00;99.90;;;;;;5014083;28;20326;-69
2022/01/23 12:17:05;;;;;;;;;;;8.00;99.90;;;;;;5025060;28;19956;-75
2022/01/23 12:19:40;;;;;;;;;;;8.10;99.90;;;;;;5025203;28;19928;-71
2022/01/23 12:22:26;;;;;;;;;;;7.90;99.90;;;;;;5014016;28;19924;-70
2022/01/23 12:24:53;;;;;;;;;;;7.90;99.90;;;;;;5020805;28;20506;-71
2022/01/23 12:27:21;;;;;;;;;;;7.90;99.90;;;;;;5016673;28;20047;-72
2022/01/23 12:29:47;;;;;;;;;;;7.80;99.90;;;;;;5018052;28;20261;-71
2022/01/23 12:32:26;;;;;;;;;;;7.80;99.90;;;;;;5016122;28;19956;-73
2022/01/23 12:34:56;;;;;;;;;;;7.70;99.90;;;;;;4997999;28;20225;-72
2022/01/23 12:37:22;;;;;;;;;;;7.80;99.90;;;;;;5013963;28;20255;-76
2022/01/23 12:40:06;;;;;;;;;;;7.80;99.90;;;;;;5025382;28;19909;-71
2022/01/23 12:42:51;;;;;;;;;;;7.80;99.90;;;;;;5019893;28;19941;-70
2022/01/23 12:45:35;;;;;;;;;;;7.80;99.90;;;;;;5008799;28;20335;-72
2022/01/23 12:48:36;;;;;;;;;;;7.80;99.90;;;;;;5008674;28;19932;-70
2022/01/23 12:51:02;;;;;;;;;;;7.70;99.90;;;;;;4946110;28;19911;-69
2022/01/23 12:53:36;;;;;;;;;;;7.70;99.90;;;;;;4982210;28;19920;-70
2022/01/23 12:56:03;;;;;;;;;;;7.90;99.90;;;;;;5020698;28;20383;-72
2022/01/23 12:58:31;;;;;;;;;;;7.80;99.90;;;;;;5025744;28;19928;-72
2022/01/23 13:00:58;;;;;;;;;;;7.80;99.90;;;;;;5025707;28;20139;-71
2022/01/23 13:03:25;;;;;;;;;;;7.90;99.90;;;;;;5029143;28;19913;-72
2022/01/23 13:05:50;;;;;;;;;;;8.00;99.90;;;;;;5028885;28;19971;-70
2022/01/23 13:08:47;;;;;;;;;;;8.10;99.90;;;;;;5012308;28;20390;-69
2022/01/23 13:11:33;;;;;;;;;;;8.20;99.90;;;;;;5026423;28;20350;-70
2022/01/23 13:14:02;;;;;;;;;;;8.30;99.90;;;;;;5028762;28;20253;-70
2022/01/23 13:30:13;;;;;;;;;;;8.00;99.90;;;;;;5029272;28;19917;-71
2022/01/23 13:32:45;;;;;;;;;;;7.90;99.90;;;;;;5008805;28;19988;-75
2022/01/23 13:35:14;;;;;;;;;;;7.80;99.90;;;;;;5026119;28;20388;-72
2022/01/23 13:37:41;;;;;;;;;;;7.80;99.90;;;;;;5025905;28;19913;-69
2022/01/23 13:40:08;;;;;;;;;;;7.90;99.90;;;;;;5026569;28;19917;-69
2022/01/23 13:48:43;;;;;;;;;;;7.90;99.90;;;;;;5030538;28;19967;-69
2022/01/23 13:59:33;;;;;;;;;;;7.70;99.90;;;;;;5029665;28;19913;-71
2022/01/23 14:02:25;;;;;;;;;;;7.70;99.90;;;;;;5029441;28;19921;-73
2022/01/23 14:05:11;;;;;;;;;;;7.70;99.90;;;;;;4988745;28;19909;-73
2022/01/23 14:07:37;;;;;;;;;;;7.80;99.90;;;;;;5012323;28;19924;-71
2022/01/23 14:10:14;;;;;;;;;;;7.70;99.90;;;;;;5032233;28;19913;-71
2022/01/23 14:12:40;;;;;;;;;;;7.70;99.90;;;;;;5033205;28;20388;-71
2022/01/23 14:15:09;;;;;;;;;;;7.60;99.90;;;;;;5035553;28;20004;-70
2022/01/23 14:17:39;;;;;;;;;;;7.70;99.90;;;;;;5034985;28;20374;-71
2022/01/23 14:20:16;;;;;;;;;;;7.70;99.90;;;;;;5032235;28;19920;-73
2022/01/23 14:22:43;;;;;;;;;;;7.80;99.90;;;;;;5032941;28;19909;-71
2022/01/23 14:25:13;;;;;;;;;;;7.80;99.90;;;;;;5032051;28;19915;-72
2022/01/23 14:27:40;;;;;;;;;;;7.90;99.90;;;;;;5034376;28;20414;-72
2022/01/23 14:30:08;;;;;;;;;;;7.90;99.90;;;;;;5033292;28;19968;-71
2022/01/23 14:32:42;;;;;;;;;;;7.80;99.90;;;;;;5031690;28;19966;-72
2022/01/23 14:35:08;;;;;;;;;;;7.80;99.90;;;;;;5013797;28;19966;-71
2022/01/23 14:37:33;;;;;;;;;;;7.70;99.90;;;;;;5032738;28;19979;-74
2022/01/23 14:40:08;;;;;;;;;;;7.70;99.90;;;;;;5031542;28;19909;-69
2022/01/23 14:42:34;;;;;;;;;;;7.70;99.90;;;;;;5031752;28;19966;-74
2022/01/23 14:45:02;;;;;;;;;;;7.70;99.90;;;;;;5029939;28;20020;-75
2022/01/23 14:47:33;;;;;;;;;;;7.70;99.90;;;;;;5014083;28;19975;-70
2022/01/23 14:49:59;;;;;;;;;;;7.80;99.90;;;;;;5012093;28;19920;-72
2022/01/23 14:52:26;;;;;;;;;;;7.80;99.90;;;;;;5028919;28;19913;-70
2022/01/23 14:54:51;;;;;;;;;;;7.80;99.90;;;;;;5028231;28;19936;-72
2022/01/23 14:57:17;;;;;;;;;;;7.70;99.90;;;;;;5028637;28;20279;-70
2022/01/23 14:59:43;;;;;;;;;;;7.90;99.90;;;;;;5028483;28;19909;-71
2022/01/23 15:02:08;;;;;;;;;;;7.80;99.90;;;;;;5029987;28;19926;-70
2022/01/23 15:04:44;;;;;;;;;;;7.70;99.90;;;;;;5017182;28;19909;-69
2022/01/23 15:07:14;;;;;;;;;;;7.70;99.90;;;;;;5033005;28;19913;-72
2022/01/23 15:09:40;;;;;;;;;;;7.70;99.90;;;;;;5033289;28;20194;-68
2022/01/23 15:12:06;;;;;;;;;;;7.80;99.90;;;;;;5032304;28;19925;-71
2022/01/23 15:14:32;;;;;;;;;;;7.80;99.90;;;;;;5030697;28;19916;-71
2022/01/23 15:16:58;;;;;;;;;;;7.80;99.90;;;;;;5029742;28;20039;-71
2022/01/23 15:19:24;;;;;;;;;;;7.70;99.90;;;;;;5027400;28;20403;-71
2022/01/23 15:21:50;;;;;;;;;;;7.50;99.90;;;;;;5031386;28;19917;-72
2022/01/23 15:24:15;;;;;;;;;;;7.60;99.90;;;;;;5015196;28;19916;-71
2022/01/23 15:26:41;;;;;;;;;;;7.60;99.90;;;;;;5034307;28;19931;-74
2022/01/23 15:29:06;;;;;;;;;;;7.70;99.90;;;;;;5026592;28;19948;-71
2022/01/23 15:31:32;;;;;;;;;;;7.60;99.90;;;;;;5027196;28;20423;-72
2022/01/23 15:33:58;;;;;;;;;;;7.60;99.90;;;;;;5033487;28;19917;-71
2022/01/23 15:36:23;;;;;;;;;;;7.60;99.90;;;;;;5009896;28;19909;-71
2022/01/23 15:38:49;;;;;;;;;;;7.70;99.90;;;;;;5029885;28;20500;-70
2022/01/23 15:41:14;;;;;;;;;;;7.70;99.90;;;;;;5027049;28;19944;-71
2022/01/23 15:43:40;;;;;;;;;;;7.80;99.90;;;;;;5028399;28;19932;-71
2022/01/23 15:46:09;;;;;;;;;;;7.60;99.90;;;;;;5028327;28;19967;-69
2022/01/23 15:48:34;;;;;;;;;;;7.50;99.90;;;;;;5027334;28;19955;-70
2022/01/23 15:51:01;;;;;;;;;;;7.50;99.90;;;;;;5027606;28;19944;-70
2022/01/23 15:53:26;;;;;;;;;;;7.40;99.90;;;;;;5028096;28;19909;-73
2022/01/23 15:55:52;;;;;;;;;;;7.50;99.90;;;;;;5024151;28;19959;-72
2022/01/23 15:58:17;;;;;;;;;;;7.50;99.90;;;;;;5034318;28;19917;-70
2022/01/23 16:00:43;;;;;;;;;;;7.60;99.90;;;;;;5033355;28;20244;-70
2022/01/23 16:03:08;;;;;;;;;;;7.60;99.90;;;;;;5014919;28;20028;-73
2022/01/23 16:05:34;;;;;;;;;;;7.70;99.90;;;;;;5031660;28;20227;-72
2022/01/23 16:08:00;;;;;;;;;;;7.70;99.90;;;;;;4999227;28;19968;-70
2022/01/23 16:10:26;;;;;;;;;;;7.70;99.90;;;;;;5037630;28;20051;-71
2022/01/23 16:12:51;;;;;;;;;;;7.80;99.90;;;;;;5036663;28;20282;-71
2022/01/23 16:15:17;;;;;;;;;;;7.80;99.90;;;;;;5028115;28;20000;-74
2022/01/23 16:17:44;;;;;;;;;;;7.90;99.90;;;;;;5029592;28;19909;-71
2022/01/23 16:20:09;;;;;;;;;;;7.90;99.90;;;;;;5028890;28;19916;-72
2022/01/23 16:22:36;;;;;;;;;;;7.80;99.90;;;;;;5028651;28;19909;-71
2022/01/23 16:25:02;;;;;;;;;;;7.90;99.90;;;;;;5028232;28;19937;-72
2022/01/23 16:27:28;;;;;;;;;;;7.90;99.90;;;;;;5028278;28;20389;-71
2022/01/23 16:29:53;;;;;;;;;;;7.80;99.90;;;;;;5028596;28;20073;-72
2022/01/23 16:32:19;;;;;;;;;;;7.80;99.90;;;;;;5030877;28;20484;-70
2022/01/23 16:34:44;;;;;;;;;;;7.90;99.90;;;;;;5032210;28;19909;-71
2022/01/23 16:37:10;;;;;;;;;;;7.90;99.90;;;;;;5029321;28;20417;-72
2022/01/23 16:39:36;;;;;;;;;;;7.80;99.90;;;;;;5030033;28;19944;-72
2022/01/23 16:42:01;;;;;;;;;;;7.80;99.90;;;;;;5032253;28;19913;-71
2022/01/23 16:44:27;;;;;;;;;;;7.50;99.90;;;;;;5032816;28;20575;-71
2022/01/23 16:46:53;;;;;;;;;;;7.40;99.90;;;;;;5029027;28;20302;-71
2022/01/23 16:49:19;;;;;;;;;;;7.60;99.90;;;;;;5027826;28;19967;-70
2022/01/23 16:51:44;;;;;;;;;;;7.50;99.90;;;;;;5030253;28;19959;-70
2022/01/23 16:54:10;;;;;;;;;;;7.60;99.90;;;;;;5026519;28;20506;-72
2022/01/23 16:56:37;;;;;;;;;;;7.50;99.90;;;;;;5017365;28;19968;-71
2022/01/23 16:59:03;;;;;;;;;;;7.30;99.90;;;;;;5026641;28;19909;-72
2022/01/23 17:01:28;;;;;;;;;;;7.40;99.90;;;;;;5026763;28;19936;-71
2022/01/23 17:03:56;;;;;;;;;;;7.40;99.90;;;;;;5007787;28;19917;-73
2022/01/23 17:06:22;;;;;;;;;;;7.50;99.90;;;;;;5008924;28;19909;-71
2022/01/23 17:08:48;;;;;;;;;;;7.30;99.90;;;;;;5027886;28;20303;-71
2022/01/23 17:11:13;;;;;;;;;;;7.10;99.90;;;;;;5028059;28;19920;-70
2022/01/23 17:13:39;;;;;;;;;;;7.20;99.90;;;;;;5026754;28;20152;-69
2022/01/23 17:16:04;;;;;;;;;;;7.30;99.90;;;;;;5026635;28;20467;-71
2022/01/23 17:18:31;;;;;;;;;;;7.40;99.90;;;;;;5028923;28;19921;-71
2022/01/23 17:20:57;;;;;;;;;;;7.40;99.90;;;;;;5032452;28;19960;-73
2022/01/23 17:23:22;;;;;;;;;;;7.40;99.90;;;;;;5033901;28;19914;-72
2022/01/23 17:25:48;;;;;;;;;;;7.50;99.90;;;;;;5033687;28;19947;-70
2022/01/23 17:28:14;;;;;;;;;;;7.30;99.90;;;;;;5036941;28;19936;-70
2022/01/23 17:30:39;;;;;;;;;;;7.30;99.90;;;;;;5031614;28;19917;-72
2022/01/23 17:33:05;;;;;;;;;;;7.20;99.90;;;;;;5031991;28;19960;-71
2022/01/23 17:35:30;;;;;;;;;;;7.30;99.90;;;;;;5034076;28;19914;-71
2022/01/23 17:37:57;;;;;;;;;;;7.20;99.90;;;;;;5017404;28;19909;-71
2022/01/23 17:40:23;;;;;;;;;;;7.30;99.90;;;;;;5021013;28;19913;-70
2022/01/23 17:42:49;;;;;;;;;;;7.30;99.90;;;;;;5024858;28;20060;-71
2022/01/23 17:45:22;;;;;;;;;;;7.30;99.90;;;;;;5028088;28;19913;-70
2022/01/23 17:50:21;;;;;;;;;;;7.20;99.90;;;;;;5033417;28;20488;-71
2022/01/23 17:52:50;;;;;;;;;;;7.40;99.90;;;;;;5024423;28;20558;-72
2022/01/23 17:55:16;;;;;;;;;;;7.40;99.90;;;;;;5026502;28;19982;-70
2022/01/23 17:57:41;;;;;;;;;;;7.40;99.90;;;;;;5033661;28;20699;-69
2022/01/23 18:00:07;;;;;;;;;;;7.30;99.90;;;;;;5028041;28;20279;-71
2022/01/23 18:02:33;;;;;;;;;;;7.20;99.90;;;;;;5027226;28;19913;-73
2022/01/23 18:04:59;;;;;;;;;;;7.20;99.90;;;;;;5028349;28;19919;-69
2022/01/23 18:07:24;;;;;;;;;;;7.20;99.90;;;;;;5030022;28;20056;-71